Terminal Aerodrome Forecast
Issued by NWS

Home | Current Version | Previous Version | Text Only | Print | Product List | Glossary On
Versions: 1 2 3 4 5 6 7 8 9 10 11 12 13 14 15 16 17 18
000
FTUS46 KMTR 250500
TAFOAK
TAF
KOAK 250522Z 2506/2612 25008KT P6SM VCSH BKN015 OVC025
     FM251200 19008KT P6SM -SHRA SCT015 OVC025
     FM251800 24015G22KT P6SM -SHRA BKN035
     FM260300 27012KT P6SM SCT050=

USA.gov is the U.S. government's official web portal to all federal, state and local government web resources and services.